sensor_id;sensor_type;location;lat;lon;timestamp;P1;durP1;ratioP1;P2;durP2;ratioP2
71562;SDS011;59391;52.504;13.438;2023-03-11T00:00:20;24.57;;;13.87;;
71562;SDS011;59391;52.504;13.438;2023-03-11T00:02:49;23.27;;;12.48;;
71562;SDS011;59391;52.504;13.438;2023-03-11T00:05:19;21.75;;;13.23;;
71562;SDS011;59391;52.504;13.438;2023-03-11T00:07:50;22.88;;;13.00;;
71562;SDS011;59391;52.504;13.438;2023-03-11T00:10:18;24.05;;;13.75;;
71562;SDS011;59391;52.504;13.438;2023-03-11T00:12:48;21.87;;;13.47;;
71562;SDS011;59391;52.504;13.438;2023-03-11T00:15:13;21.08;;;12.48;;
71562;SDS011;59391;52.504;13.438;2023-03-11T00:17:39;23.20;;;13.23;;
71562;SDS011;59391;52.504;13.438;2023-03-11T00:20:05;22.90;;;13.23;;
71562;SDS011;59391;52.504;13.438;2023-03-11T00:22:39;21.63;;;13.20;;
71562;SDS011;59391;52.504;13.438;2023-03-11T00:25:04;35.03;;;19.70;;
71562;SDS011;59391;52.504;13.438;2023-03-11T00:27:30;25.27;;;14.53;;
71562;SDS011;59391;52.504;13.438;2023-03-11T00:29:55;22.95;;;13.73;;
71562;SDS011;59391;52.504;13.438;2023-03-11T00:32:21;20.13;;;11.90;;
71562;SDS011;59391;52.504;13.438;2023-03-11T00:34:47;22.67;;;13.07;;
71562;SDS011;59391;52.504;13.438;2023-03-11T00:37:13;23.88;;;13.65;;
71562;SDS011;59391;52.504;13.438;2023-03-11T00:39:38;21.48;;;12.65;;
71562;SDS011;59391;52.504;13.438;2023-03-11T00:42:04;22.03;;;13.33;;
71562;SDS011;59391;52.504;13.438;2023-03-11T00:44:31;22.67;;;13.20;;
71562;SDS011;59391;52.504;13.438;2023-03-11T00:46:56;22.23;;;12.87;;
71562;SDS011;59391;52.504;13.438;2023-03-11T00:49:22;20.90;;;11.60;;
71562;SDS011;59391;52.504;13.438;2023-03-11T00:51:47;20.10;;;11.00;;
71562;SDS011;59391;52.504;13.438;2023-03-11T00:54:13;20.03;;;12.10;;
71562;SDS011;59391;52.504;13.438;2023-03-11T00:56:39;19.02;;;11.43;;
71562;SDS011;59391;52.504;13.438;2023-03-11T00:59:05;19.23;;;11.88;;
71562;SDS011;59391;52.504;13.438;2023-03-11T01:01:31;20.03;;;12.40;;
71562;SDS011;59391;52.504;13.438;2023-03-11T01:03:57;20.48;;;12.52;;
71562;SDS011;59391;52.504;13.438;2023-03-11T01:06:22;20.67;;;12.98;;
71562;SDS011;59391;52.504;13.438;2023-03-11T01:08:48;20.47;;;12.30;;
71562;SDS011;59391;52.504;13.438;2023-03-11T01:11:13;21.60;;;13.23;;
71562;SDS011;59391;52.504;13.438;2023-03-11T01:13:39;22.00;;;12.97;;
71562;SDS011;59391;52.504;13.438;2023-03-11T01:16:05;23.10;;;13.30;;
71562;SDS011;59391;52.504;13.438;2023-03-11T01:18:32;24.20;;;14.15;;
71562;SDS011;59391;52.504;13.438;2023-03-11T01:20:57;25.45;;;14.23;;
71562;SDS011;59391;52.504;13.438;2023-03-11T01:23:23;24.83;;;14.52;;
71562;SDS011;59391;52.504;13.438;2023-03-11T01:25:49;25.58;;;14.85;;
71562;SDS011;59391;52.504;13.438;2023-03-11T01:28:15;22.10;;;13.37;;
71562;SDS011;59391;52.504;13.438;2023-03-11T01:30:41;24.25;;;14.15;;
71562;SDS011;59391;52.504;13.438;2023-03-11T01:33:08;25.17;;;14.90;;
71562;SDS011;59391;52.504;13.438;2023-03-11T01:35:41;24.38;;;14.68;;
71562;SDS011;59391;52.504;13.438;2023-03-11T01:38:08;25.47;;;14.97;;
71562;SDS011;59391;52.504;13.438;2023-03-11T01:40:38;28.23;;;16.17;;
71562;SDS011;59391;52.504;13.438;2023-03-11T01:48:26;19.03;;;11.70;;
71562;SDS011;59391;52.504;13.438;2023-03-11T01:50:53;18.42;;;11.60;;
71562;SDS011;59391;52.504;13.438;2023-03-11T01:53:20;20.42;;;11.65;;
71562;SDS011;59391;52.504;13.438;2023-03-11T01:55:47;18.88;;;11.07;;
71562;SDS011;59391;52.504;13.438;2023-03-11T01:58:15;16.50;;;9.87;;
71562;SDS011;59391;52.504;13.438;2023-03-11T02:00:47;14.43;;;9.00;;
71562;SDS011;59391;52.504;13.438;2023-03-11T02:03:26;14.65;;;9.77;;
71562;SDS011;59391;52.504;13.438;2023-03-11T02:06:01;11.25;;;7.32;;
71562;SDS011;59391;52.504;13.438;2023-03-11T02:08:32;10.32;;;6.68;;
71562;SDS011;59391;52.504;13.438;2023-03-11T02:10:58;9.23;;;6.60;;
71562;SDS011;59391;52.504;13.438;2023-03-11T02:13:28;7.80;;;5.85;;
71562;SDS011;59391;52.504;13.438;2023-03-11T02:15:58;7.77;;;5.37;;
71562;SDS011;59391;52.504;13.438;2023-03-11T02:18:24;6.95;;;5.35;;
71562;SDS011;59391;52.504;13.438;2023-03-11T02:21:00;7.18;;;5.57;;
71562;SDS011;59391;52.504;13.438;2023-03-11T02:26:55;6.63;;;5.00;;
71562;SDS011;59391;52.504;13.438;2023-03-11T02:29:29;6.85;;;5.05;;
71562;SDS011;59391;52.504;13.438;2023-03-11T02:31:57;6.05;;;4.40;;
71562;SDS011;59391;52.504;13.438;2023-03-11T02:34:28;5.82;;;4.50;;
71562;SDS011;59391;52.504;13.438;2023-03-11T02:36:56;6.20;;;4.57;;
71562;SDS011;59391;52.504;13.438;2023-03-11T02:41:56;7.13;;;5.38;;
71562;SDS011;59391;52.504;13.438;2023-03-11T02:44:24;6.10;;;4.50;;
71562;SDS011;59391;52.504;13.438;2023-03-11T02:46:50;6.05;;;4.57;;
71562;SDS011;59391;52.504;13.438;2023-03-11T02:49:17;6.47;;;5.15;;
71562;SDS011;59391;52.504;13.438;2023-03-11T02:51:44;6.50;;;4.93;;
71562;SDS011;59391;52.504;13.438;2023-03-11T02:54:10;7.43;;;5.28;;
71562;SDS011;59391;52.504;13.438;2023-03-11T02:56:36;7.23;;;5.27;;
71562;SDS011;59391;52.504;13.438;2023-03-11T02:59:01;6.15;;;4.55;;
71562;SDS011;59391;52.504;13.438;2023-03-11T03:01:27;6.57;;;4.93;;
71562;SDS011;59391;52.504;13.438;2023-03-11T03:03:53;6.95;;;4.90;;
71562;SDS011;59391;52.504;13.438;2023-03-11T03:06:18;8.10;;;5.57;;
71562;SDS011;59391;52.504;13.438;2023-03-11T03:08:45;7.10;;;5.50;;
71562;SDS011;59391;52.504;13.438;2023-03-11T03:11:10;7.80;;;5.30;;
71562;SDS011;59391;52.504;13.438;2023-03-11T03:13:36;6.80;;;5.05;;
71562;SDS011;59391;52.504;13.438;2023-03-11T03:16:01;6.67;;;5.40;;
71562;SDS011;59391;52.504;13.438;2023-03-11T03:18:27;7.13;;;5.25;;
71562;SDS011;59391;52.504;13.438;2023-03-11T03:20:53;9.32;;;6.60;;
71562;SDS011;59391;52.504;13.438;2023-03-11T03:23:19;8.15;;;5.65;;
71562;SDS011;59391;52.504;13.438;2023-03-11T03:25:44;7.30;;;5.47;;
71562;SDS011;59391;52.504;13.438;2023-03-11T03:28:11;8.20;;;6.30;;
71562;SDS011;59391;52.504;13.438;2023-03-11T03:30:37;8.60;;;5.90;;
71562;SDS011;59391;52.504;13.438;2023-03-11T03:33:04;6.80;;;5.10;;
71562;SDS011;59391;52.504;13.438;2023-03-11T03:35:31;7.47;;;5.30;;
71562;SDS011;59391;52.504;13.438;2023-03-11T03:37:59;7.82;;;5.80;;
71562;SDS011;59391;52.504;13.438;2023-03-11T03:40:26;8.40;;;5.95;;
71562;SDS011;59391;52.504;13.438;2023-03-11T03:42:51;8.47;;;6.33;;
71562;SDS011;59391;52.504;13.438;2023-03-11T03:45:17;9.50;;;6.30;;
71562;SDS011;59391;52.504;13.438;2023-03-11T03:47:43;10.73;;;6.73;;
71562;SDS011;59391;52.504;13.438;2023-03-11T03:50:09;8.25;;;5.65;;
71562;SDS011;59391;52.504;13.438;2023-03-11T03:52:37;10.50;;;7.03;;
71562;SDS011;59391;52.504;13.438;2023-03-11T03:55:03;10.63;;;7.28;;
71562;SDS011;59391;52.504;13.438;2023-03-11T03:57:30;9.57;;;6.10;;
71562;SDS011;59391;52.504;13.438;2023-03-11T03:59:56;10.37;;;6.77;;
71562;SDS011;59391;52.504;13.438;2023-03-11T04:02:21;9.60;;;7.13;;
71562;SDS011;59391;52.504;13.438;2023-03-11T04:04:47;11.32;;;7.60;;
71562;SDS011;59391;52.504;13.438;2023-03-11T04:07:16;12.13;;;7.73;;
71562;SDS011;59391;52.504;13.438;2023-03-11T04:09:42;10.32;;;6.97;;
71562;SDS011;59391;52.504;13.438;2023-03-11T04:12:14;9.50;;;6.50;;
71562;SDS011;59391;52.504;13.438;2023-03-11T04:14:41;9.40;;;6.20;;
71562;SDS011;59391;52.504;13.438;2023-03-11T04:17:09;9.70;;;6.93;;
71562;SDS011;59391;52.504;13.438;2023-03-11T04:19:38;9.13;;;6.15;;
71562;SDS011;59391;52.504;13.438;2023-03-11T04:22:05;12.30;;;6.88;;
71562;SDS011;59391;52.504;13.438;2023-03-11T04:24:30;11.00;;;6.40;;
71562;SDS011;59391;52.504;13.438;2023-03-11T04:26:56;10.38;;;6.82;;
71562;SDS011;59391;52.504;13.438;2023-03-11T04:29:22;10.60;;;7.20;;
71562;SDS011;59391;52.504;13.438;2023-03-11T04:31:47;9.63;;;6.85;;
71562;SDS011;59391;52.504;13.438;2023-03-11T04:34:13;10.23;;;6.80;;
71562;SDS011;59391;52.504;13.438;2023-03-11T04:36:39;9.40;;;6.60;;
71562;SDS011;59391;52.504;13.438;2023-03-11T04:39:05;10.02;;;6.82;;
71562;SDS011;59391;52.504;13.438;2023-03-11T04:41:31;10.00;;;6.97;;
71562;SDS011;59391;52.504;13.438;2023-03-11T04:44:00;10.88;;;6.68;;
71562;SDS011;59391;52.504;13.438;2023-03-11T04:46:25;9.55;;;6.32;;
71562;SDS011;59391;52.504;13.438;2023-03-11T04:48:51;9.40;;;6.10;;
71562;SDS011;59391;52.504;13.438;2023-03-11T04:51:16;9.97;;;5.83;;
71562;SDS011;59391;52.504;13.438;2023-03-11T04:53:42;9.25;;;6.38;;
71562;SDS011;59391;52.504;13.438;2023-03-11T04:56:08;9.17;;;6.47;;
71562;SDS011;59391;52.504;13.438;2023-03-11T04:58:33;8.40;;;6.20;;
71562;SDS011;59391;52.504;13.438;2023-03-11T05:00:59;9.40;;;6.70;;
71562;SDS011;59391;52.504;13.438;2023-03-11T05:03:25;10.73;;;6.45;;
71562;SDS011;59391;52.504;13.438;2023-03-11T05:05:50;9.27;;;5.80;;
71562;SDS011;59391;52.504;13.438;2023-03-11T05:08:20;8.93;;;5.35;;
71562;SDS011;59391;52.504;13.438;2023-03-11T05:10:47;10.35;;;6.38;;
71562;SDS011;59391;52.504;13.438;2023-03-11T05:13:13;8.90;;;5.67;;
71562;SDS011;59391;52.504;13.438;2023-03-11T05:15:39;9.75;;;5.43;;
71562;SDS011;59391;52.504;13.438;2023-03-11T05:18:05;8.93;;;5.70;;
71562;SDS011;59391;52.504;13.438;2023-03-11T05:20:31;9.90;;;6.10;;
71562;SDS011;59391;52.504;13.438;2023-03-11T05:22:56;8.37;;;5.37;;
71562;SDS011;59391;52.504;13.438;2023-03-11T05:25:23;8.95;;;6.15;;
71562;SDS011;59391;52.504;13.438;2023-03-11T05:27:48;8.70;;;5.20;;
71562;SDS011;59391;52.504;13.438;2023-03-11T05:30:14;9.23;;;6.20;;
71562;SDS011;59391;52.504;13.438;2023-03-11T05:32:40;13.10;;;5.90;;
71562;SDS011;59391;52.504;13.438;2023-03-11T05:35:06;10.10;;;6.10;;
71562;SDS011;59391;52.504;13.438;2023-03-11T05:37:32;7.90;;;5.47;;
71562;SDS011;59391;52.504;13.438;2023-03-11T05:39:59;9.05;;;5.88;;
71562;SDS011;59391;52.504;13.438;2023-03-11T05:42:24;8.65;;;6.07;;
71562;SDS011;59391;52.504;13.438;2023-03-11T05:44:50;9.70;;;5.90;;
71562;SDS011;59391;52.504;13.438;2023-03-11T05:47:16;8.13;;;6.03;;
71562;SDS011;59391;52.504;13.438;2023-03-11T05:49:42;7.88;;;5.70;;
71562;SDS011;59391;52.504;13.438;2023-03-11T05:52:07;10.40;;;5.87;;
71562;SDS011;59391;52.504;13.438;2023-03-11T05:54:33;8.02;;;5.72;;
71562;SDS011;59391;52.504;13.438;2023-03-11T05:56:59;9.67;;;6.10;;
71562;SDS011;59391;52.504;13.438;2023-03-11T05:59:25;8.73;;;6.00;;
71562;SDS011;59391;52.504;13.438;2023-03-11T06:01:50;8.30;;;5.70;;
71562;SDS011;59391;52.504;13.438;2023-03-11T06:04:16;10.13;;;6.57;;
71562;SDS011;59391;52.504;13.438;2023-03-11T06:06:41;10.67;;;6.83;;
71562;SDS011;59391;52.504;13.438;2023-03-11T06:09:11;9.35;;;6.43;;
71562;SDS011;59391;52.504;13.438;2023-03-11T06:11:38;9.47;;;6.00;;
71562;SDS011;59391;52.504;13.438;2023-03-11T06:14:04;9.00;;;6.55;;
71562;SDS011;59391;52.504;13.438;2023-03-11T06:16:30;9.45;;;6.57;;
71562;SDS011;59391;52.504;13.438;2023-03-11T06:18:55;10.23;;;6.23;;
71562;SDS011;59391;52.504;13.438;2023-03-11T06:21:22;8.40;;;5.95;;
71562;SDS011;59391;52.504;13.438;2023-03-11T06:23:50;9.05;;;6.43;;
71562;SDS011;59391;52.504;13.438;2023-03-11T06:26:17;8.77;;;6.50;;
71562;SDS011;59391;52.504;13.438;2023-03-11T06:28:45;9.63;;;6.07;;
71562;SDS011;59391;52.504;13.438;2023-03-11T06:31:13;14.15;;;8.98;;
71562;SDS011;59391;52.504;13.438;2023-03-11T06:33:49;17.63;;;10.48;;
71562;SDS011;59391;52.504;13.438;2023-03-11T06:36:16;10.63;;;7.28;;
71562;SDS011;59391;52.504;13.438;2023-03-11T06:38:44;10.70;;;6.70;;
71562;SDS011;59391;52.504;13.438;2023-03-11T06:41:16;10.15;;;6.43;;
71562;SDS011;59391;52.504;13.438;2023-03-11T06:43:41;9.45;;;7.13;;
71562;SDS011;59391;52.504;13.438;2023-03-11T06:46:08;10.50;;;7.30;;
71562;SDS011;59391;52.504;13.438;2023-03-11T06:48:39;11.70;;;7.43;;
71562;SDS011;59391;52.504;13.438;2023-03-11T06:51:05;10.13;;;7.20;;
71562;SDS011;59391;52.504;13.438;2023-03-11T06:53:31;11.43;;;7.22;;
71562;SDS011;59391;52.504;13.438;2023-03-11T06:56:04;11.85;;;7.55;;
71562;SDS011;59391;52.504;13.438;2023-03-11T06:58:32;10.13;;;7.38;;
71562;SDS011;59391;52.504;13.438;2023-03-11T07:01:01;12.10;;;8.20;;
71562;SDS011;59391;52.504;13.438;2023-03-11T07:03:35;12.20;;;7.30;;
71562;SDS011;59391;52.504;13.438;2023-03-11T07:06:00;10.40;;;7.07;;
71562;SDS011;59391;52.504;13.438;2023-03-11T07:08:26;12.43;;;8.18;;
71562;SDS011;59391;52.504;13.438;2023-03-11T07:11:03;12.60;;;8.37;;
71562;SDS011;59391;52.504;13.438;2023-03-11T07:13:33;12.02;;;8.15;;
71562;SDS011;59391;52.504;13.438;2023-03-11T07:16:10;11.48;;;7.72;;
71562;SDS011;59391;52.504;13.438;2023-03-11T07:18:37;10.05;;;6.88;;
71562;SDS011;59391;52.504;13.438;2023-03-11T07:21:03;11.50;;;7.80;;
71562;SDS011;59391;52.504;13.438;2023-03-11T07:23:31;11.60;;;6.93;;
71562;SDS011;59391;52.504;13.438;2023-03-11T07:25:58;10.98;;;7.35;;
71562;SDS011;59391;52.504;13.438;2023-03-11T07:28:30;11.80;;;7.80;;
71562;SDS011;59391;52.504;13.438;2023-03-11T07:30:56;10.13;;;7.23;;
71562;SDS011;59391;52.504;13.438;2023-03-11T07:33:21;10.85;;;7.65;;
71562;SDS011;59391;52.504;13.438;2023-03-11T07:35:48;12.70;;;8.18;;
71562;SDS011;59391;52.504;13.438;2023-03-11T07:38:15;12.97;;;8.50;;
71562;SDS011;59391;52.504;13.438;2023-03-11T07:40:41;13.65;;;7.90;;
71562;SDS011;59391;52.504;13.438;2023-03-11T07:43:08;12.70;;;7.72;;
71562;SDS011;59391;52.504;13.438;2023-03-11T07:45:34;12.90;;;7.57;;
71562;SDS011;59391;52.504;13.438;2023-03-11T07:48:00;12.23;;;8.17;;
71562;SDS011;59391;52.504;13.438;2023-03-11T07:50:25;11.20;;;7.60;;
71562;SDS011;59391;52.504;13.438;2023-03-11T07:52:51;11.10;;;7.60;;
71562;SDS011;59391;52.504;13.438;2023-03-11T07:55:17;13.90;;;7.60;;
71562;SDS011;59391;52.504;13.438;2023-03-11T07:57:42;10.77;;;7.30;;
71562;SDS011;59391;52.504;13.438;2023-03-11T08:00:11;10.75;;;6.90;;
71562;SDS011;59391;52.504;13.438;2023-03-11T08:02:37;11.45;;;7.93;;
71562;SDS011;59391;52.504;13.438;2023-03-11T08:05:03;14.40;;;7.53;;
71562;SDS011;59391;52.504;13.438;2023-03-11T08:07:30;12.13;;;7.82;;
71562;SDS011;59391;52.504;13.438;2023-03-11T08:09:56;12.05;;;7.63;;
71562;SDS011;59391;52.504;13.438;2023-03-11T08:12:23;12.30;;;8.00;;
71562;SDS011;59391;52.504;13.438;2023-03-11T08:14:48;12.17;;;8.07;;
71562;SDS011;59391;52.504;13.438;2023-03-11T08:17:14;12.23;;;7.90;;
71562;SDS011;59391;52.504;13.438;2023-03-11T08:19:40;12.50;;;8.00;;
71562;SDS011;59391;52.504;13.438;2023-03-11T08:22:05;14.27;;;7.57;;
71562;SDS011;59391;52.504;13.438;2023-03-11T08:24:32;12.50;;;8.43;;
71562;SDS011;59391;52.504;13.438;2023-03-11T08:26:57;13.47;;;7.93;;
71562;SDS011;59391;52.504;13.438;2023-03-11T08:29:23;13.07;;;7.90;;
71562;SDS011;59391;52.504;13.438;2023-03-11T08:31:49;13.73;;;7.88;;
71562;SDS011;59391;52.504;13.438;2023-03-11T08:34:15;11.53;;;7.60;;
71562;SDS011;59391;52.504;13.438;2023-03-11T08:36:41;13.32;;;7.78;;
71562;SDS011;59391;52.504;13.438;2023-03-11T08:39:07;14.32;;;7.55;;
71562;SDS011;59391;52.504;13.438;2023-03-11T08:41:33;11.00;;;7.43;;
71562;SDS011;59391;52.504;13.438;2023-03-11T08:43:59;11.55;;;8.07;;
71562;SDS011;59391;52.504;13.438;2023-03-11T08:46:29;13.13;;;8.45;;
71562;SDS011;59391;52.504;13.438;2023-03-11T08:48:58;12.53;;;7.93;;
71562;SDS011;59391;52.504;13.438;2023-03-11T08:51:25;12.52;;;7.57;;
71562;SDS011;59391;52.504;13.438;2023-03-11T08:53:52;11.90;;;8.05;;
71562;SDS011;59391;52.504;13.438;2023-03-11T08:56:18;13.32;;;8.05;;
71562;SDS011;59391;52.504;13.438;2023-03-11T08:58:44;12.33;;;7.80;;
71562;SDS011;59391;52.504;13.438;2023-03-11T09:01:09;13.18;;;8.15;;
71562;SDS011;59391;52.504;13.438;2023-03-11T09:03:37;10.45;;;7.72;;
71562;SDS011;59391;52.504;13.438;2023-03-11T09:06:05;10.80;;;7.47;;
71562;SDS011;59391;52.504;13.438;2023-03-11T09:08:35;12.80;;;7.55;;
71562;SDS011;59391;52.504;13.438;2023-03-11T09:11:00;11.18;;;7.78;;
71562;SDS011;59391;52.504;13.438;2023-03-11T09:13:26;11.20;;;7.63;;
71562;SDS011;59391;52.504;13.438;2023-03-11T09:15:52;11.63;;;7.78;;
71562;SDS011;59391;52.504;13.438;2023-03-11T09:18:19;13.75;;;8.80;;
71562;SDS011;59391;52.504;13.438;2023-03-11T09:20:45;11.30;;;7.33;;
71562;SDS011;59391;52.504;13.438;2023-03-11T09:23:11;10.75;;;7.60;;
71562;SDS011;59391;52.504;13.438;2023-03-11T09:25:40;10.35;;;7.68;;
71562;SDS011;59391;52.504;13.438;2023-03-11T09:28:06;13.25;;;8.00;;
71562;SDS011;59391;52.504;13.438;2023-03-11T09:30:32;12.03;;;8.27;;
71562;SDS011;59391;52.504;13.438;2023-03-11T09:32:57;13.40;;;8.00;;
71562;SDS011;59391;52.504;13.438;2023-03-11T09:35:23;11.90;;;8.40;;
71562;SDS011;59391;52.504;13.438;2023-03-11T09:37:49;10.80;;;7.40;;
71562;SDS011;59391;52.504;13.438;2023-03-11T09:40:16;9.80;;;7.40;;
71562;SDS011;59391;52.504;13.438;2023-03-11T09:46:02;11.32;;;7.75;;
71562;SDS011;59391;52.504;13.438;2023-03-11T09:49:02;12.60;;;8.10;;
71562;SDS011;59391;52.504;13.438;2023-03-11T09:52:00;11.57;;;7.90;;
71562;SDS011;59391;52.504;13.438;2023-03-11T09:54:41;11.75;;;7.85;;
71562;SDS011;59391;52.504;13.438;2023-03-11T09:57:16;10.60;;;7.13;;
71562;SDS011;59391;52.504;13.438;2023-03-11T09:59:48;11.13;;;8.00;;
71562;SDS011;59391;52.504;13.438;2023-03-11T10:02:15;11.77;;;8.50;;
71562;SDS011;59391;52.504;13.438;2023-03-11T10:04:58;11.37;;;7.87;;
71562;SDS011;59391;52.504;13.438;2023-03-11T10:07:35;10.55;;;7.70;;
71562;SDS011;59391;52.504;13.438;2023-03-11T10:10:05;12.45;;;7.90;;
71562;SDS011;59391;52.504;13.438;2023-03-11T10:15:26;10.73;;;7.65;;
71562;SDS011;59391;52.504;13.438;2023-03-11T10:18:35;11.90;;;7.50;;
71562;SDS011;59391;52.504;13.438;2023-03-11T10:27:23;10.57;;;7.78;;
71562;SDS011;59391;52.504;13.438;2023-03-11T10:30:05;11.05;;;8.15;;
71562;SDS011;59391;52.504;13.438;2023-03-11T10:32:46;12.83;;;8.47;;
71562;SDS011;59391;52.504;13.438;2023-03-11T10:35:37;12.07;;;8.43;;
71562;SDS011;59391;52.504;13.438;2023-03-11T10:38:12;12.50;;;8.68;;
71562;SDS011;59391;52.504;13.438;2023-03-11T10:40:44;11.70;;;8.13;;
71562;SDS011;59391;52.504;13.438;2023-03-11T10:45:52;12.07;;;8.90;;
71562;SDS011;59391;52.504;13.438;2023-03-11T10:48:19;12.13;;;7.88;;
71562;SDS011;59391;52.504;13.438;2023-03-11T10:53:24;11.23;;;8.48;;
71562;SDS011;59391;52.504;13.438;2023-03-11T10:55:51;9.47;;;7.90;;
71562;SDS011;59391;52.504;13.438;2023-03-11T10:58:21;11.95;;;8.93;;
71562;SDS011;59391;52.504;13.438;2023-03-11T11:01:00;10.90;;;8.25;;
71562;SDS011;59391;52.504;13.438;2023-03-11T11:03:42;11.63;;;8.23;;
71562;SDS011;59391;52.504;13.438;2023-03-11T11:06:18;11.27;;;7.60;;
71562;SDS011;59391;52.504;13.438;2023-03-11T11:08:47;11.40;;;8.77;;
71562;SDS011;59391;52.504;13.438;2023-03-11T11:11:19;11.57;;;8.48;;
71562;SDS011;59391;52.504;13.438;2023-03-11T11:13:57;11.30;;;8.23;;
71562;SDS011;59391;52.504;13.438;2023-03-11T11:16:24;13.00;;;9.23;;
71562;SDS011;59391;52.504;13.438;2023-03-11T11:19:08;13.93;;;9.07;;
71562;SDS011;59391;52.504;13.438;2023-03-11T11:21:41;13.95;;;8.88;;
71562;SDS011;59391;52.504;13.438;2023-03-11T11:24:14;14.30;;;9.52;;
71562;SDS011;59391;52.504;13.438;2023-03-11T11:27:04;13.70;;;9.65;;
71562;SDS011;59391;52.504;13.438;2023-03-11T11:29:41;14.23;;;9.43;;
71562;SDS011;59391;52.504;13.438;2023-03-11T11:32:16;11.67;;;8.93;;
71562;SDS011;59391;52.504;13.438;2023-03-11T11:37:40;13.73;;;9.10;;
71562;SDS011;59391;52.504;13.438;2023-03-11T11:40:16;13.93;;;9.45;;
71562;SDS011;59391;52.504;13.438;2023-03-11T11:45:32;13.73;;;9.10;;
71562;SDS011;59391;52.504;13.438;2023-03-11T11:48:32;14.65;;;9.73;;
71562;SDS011;59391;52.504;13.438;2023-03-11T11:51:21;17.70;;;11.48;;
71562;SDS011;59391;52.504;13.438;2023-03-11T11:53:57;12.77;;;9.27;;
71562;SDS011;59391;52.504;13.438;2023-03-11T11:56:29;13.85;;;9.40;;
71562;SDS011;59391;52.504;13.438;2023-03-11T11:58:54;14.13;;;10.03;;
71562;SDS011;59391;52.504;13.438;2023-03-11T12:04:17;13.75;;;9.40;;
71562;SDS011;59391;52.504;13.438;2023-03-11T12:10:20;13.13;;;9.35;;
71562;SDS011;59391;52.504;13.438;2023-03-11T12:13:05;13.50;;;9.15;;
71562;SDS011;59391;52.504;13.438;2023-03-11T12:16:16;12.63;;;9.33;;
71562;SDS011;59391;52.504;13.438;2023-03-11T12:27:48;14.27;;;9.13;;
71562;SDS011;59391;52.504;13.438;2023-03-11T12:30:24;13.67;;;9.20;;
71562;SDS011;59391;52.504;13.438;2023-03-11T12:32:58;14.30;;;9.77;;
71562;SDS011;59391;52.504;13.438;2023-03-11T12:35:32;13.55;;;9.30;;
71562;SDS011;59391;52.504;13.438;2023-03-11T12:40:57;12.90;;;8.82;;
71562;SDS011;59391;52.504;13.438;2023-03-11T12:45:57;13.95;;;8.90;;
71562;SDS011;59391;52.504;13.438;2023-03-11T12:50:54;13.57;;;9.17;;
71562;SDS011;59391;52.504;13.438;2023-03-11T12:56:31;12.65;;;8.73;;
71562;SDS011;59391;52.504;13.438;2023-03-11T12:59:12;13.95;;;8.90;;
71562;SDS011;59391;52.504;13.438;2023-03-11T13:05:31;12.33;;;8.43;;
71562;SDS011;59391;52.504;13.438;2023-03-11T13:08:18;13.48;;;8.50;;
71562;SDS011;59391;52.504;13.438;2023-03-11T13:17:41;13.15;;;8.80;;
71562;SDS011;59391;52.504;13.438;2023-03-11T13:19:55;15.57;;;10.17;;
71562;SDS011;59391;52.504;13.438;2023-03-11T13:22:42;14.43;;;9.52;;
71562;SDS011;59391;52.504;13.438;2023-03-11T13:31:31;14.20;;;9.32;;
71562;SDS011;59391;52.504;13.438;2023-03-11T13:34:28;16.53;;;9.00;;
71562;SDS011;59391;52.504;13.438;2023-03-11T13:40:48;11.95;;;8.48;;
71562;SDS011;59391;52.504;13.438;2023-03-11T13:43:18;11.38;;;8.13;;
71562;SDS011;59391;52.504;13.438;2023-03-11T13:45:57;11.93;;;8.90;;
71562;SDS011;59391;52.504;13.438;2023-03-11T13:48:41;12.60;;;8.30;;
71562;SDS011;59391;52.504;13.438;2023-03-11T13:51:13;12.90;;;7.88;;
71562;SDS011;59391;52.504;13.438;2023-03-11T13:53:54;11.88;;;8.75;;
71562;SDS011;59391;52.504;13.438;2023-03-11T13:56:48;10.32;;;6.95;;
71562;SDS011;59391;52.504;13.438;2023-03-11T13:59:26;10.65;;;7.35;;
71562;SDS011;59391;52.504;13.438;2023-03-11T14:02:03;11.43;;;7.67;;
71562;SDS011;59391;52.504;13.438;2023-03-11T14:04:46;11.65;;;7.32;;
71562;SDS011;59391;52.504;13.438;2023-03-11T14:07:29;9.57;;;7.00;;
71562;SDS011;59391;52.504;13.438;2023-03-11T14:10:14;12.45;;;7.00;;
71562;SDS011;59391;52.504;13.438;2023-03-11T14:12:47;11.45;;;7.82;;
71562;SDS011;59391;52.504;13.438;2023-03-11T14:15:22;10.17;;;7.23;;
71562;SDS011;59391;52.504;13.438;2023-03-11T14:17:51;9.65;;;6.55;;
71562;SDS011;59391;52.504;13.438;2023-03-11T14:20:37;9.43;;;6.32;;
71562;SDS011;59391;52.504;13.438;2023-03-11T14:23:03;12.17;;;7.17;;
71562;SDS011;59391;52.504;13.438;2023-03-11T14:25:29;10.60;;;7.15;;
71562;SDS011;59391;52.504;13.438;2023-03-11T14:28:01;11.30;;;7.25;;
71562;SDS011;59391;52.504;13.438;2023-03-11T14:30:30;11.47;;;7.10;;
71562;SDS011;59391;52.504;13.438;2023-03-11T14:35:51;9.45;;;7.05;;
71562;SDS011;59391;52.504;13.438;2023-03-11T14:38:30;10.07;;;7.05;;
71562;SDS011;59391;52.504;13.438;2023-03-11T14:41:01;10.40;;;7.50;;
71562;SDS011;59391;52.504;13.438;2023-03-11T14:43:31;10.07;;;7.43;;
71562;SDS011;59391;52.504;13.438;2023-03-11T14:46:03;10.88;;;6.95;;
71562;SDS011;59391;52.504;13.438;2023-03-11T14:48:33;9.85;;;6.65;;
71562;SDS011;59391;52.504;13.438;2023-03-11T14:51:07;10.55;;;6.32;;
71562;SDS011;59391;52.504;13.438;2023-03-11T14:54:07;13.45;;;7.05;;
71562;SDS011;59391;52.504;13.438;2023-03-11T14:56:47;10.10;;;6.17;;
71562;SDS011;59391;52.504;13.438;2023-03-11T14:59:23;9.50;;;6.45;;
71562;SDS011;59391;52.504;13.438;2023-03-11T15:01:56;10.77;;;6.43;;
71562;SDS011;59391;52.504;13.438;2023-03-11T15:04:50;9.70;;;6.53;;
71562;SDS011;59391;52.504;13.438;2023-03-11T15:07:18;7.35;;;5.57;;
71562;SDS011;59391;52.504;13.438;2023-03-11T15:09:44;7.97;;;5.40;;
71562;SDS011;59391;52.504;13.438;2023-03-11T15:15:18;8.68;;;5.57;;
71562;SDS011;59391;52.504;13.438;2023-03-11T15:17:57;8.30;;;5.57;;
71562;SDS011;59391;52.504;13.438;2023-03-11T15:20:31;9.25;;;5.80;;
71562;SDS011;59391;52.504;13.438;2023-03-11T15:23:04;10.33;;;6.23;;
71562;SDS011;59391;52.504;13.438;2023-03-11T15:25:40;9.55;;;6.20;;
71562;SDS011;59391;52.504;13.438;2023-03-11T15:28:20;11.55;;;6.50;;
71562;SDS011;59391;52.504;13.438;2023-03-11T15:33:46;10.02;;;6.10;;
71562;SDS011;59391;52.504;13.438;2023-03-11T15:36:27;9.47;;;5.83;;
71562;SDS011;59391;52.504;13.438;2023-03-11T15:39:05;9.80;;;5.93;;
71562;SDS011;59391;52.504;13.438;2023-03-11T15:41:58;8.80;;;6.35;;
71562;SDS011;59391;52.504;13.438;2023-03-11T15:44:37;8.77;;;5.55;;
71562;SDS011;59391;52.504;13.438;2023-03-11T15:47:36;7.80;;;5.55;;
71562;SDS011;59391;52.504;13.438;2023-03-11T15:50:12;7.90;;;5.50;;
71562;SDS011;59391;52.504;13.438;2023-03-11T15:52:44;7.88;;;5.35;;
71562;SDS011;59391;52.504;13.438;2023-03-11T15:55:11;8.55;;;5.70;;
71562;SDS011;59391;52.504;13.438;2023-03-11T15:57:36;8.35;;;5.65;;
71562;SDS011;59391;52.504;13.438;2023-03-11T16:00:04;11.02;;;6.50;;
71562;SDS011;59391;52.504;13.438;2023-03-11T16:02:39;10.63;;;6.00;;
71562;SDS011;59391;52.504;13.438;2023-03-11T16:05:27;11.27;;;6.53;;
71562;SDS011;59391;52.504;13.438;2023-03-11T16:07:52;10.20;;;5.65;;
71562;SDS011;59391;52.504;13.438;2023-03-11T16:10:21;7.70;;;4.63;;